Latest Weather Observations for Kuitpo

IDS60901

Issued at 4:31 pm CDT Monday 18 February 2019 (issued every 10 minutes, with the page automatically refreshed every 10 minutes)

About weather observations | Map of Adelaide area stations | Latest observations for Adelaide area | Other Formats
Station Details ID: 023887 Name: KUITPO FOREST RESERVE Lat: -35.17 Lon: 138.68 Height: 365.0 m
Data from the previous 72 hours. | See also: Recent months at Kuitpo
Date/Time
CDT
Temp
°C
App
Temp
°C
Dew
Point
°C
Rel
Hum
%
Delta-T
°C
Wind Press
QNH
hPa
Press
MSL
hPa
Rain since
9am
mm
Dir  Spd
km/h
Gust
km/h
Spd
kts
Gust
kts
18/04:30pm 20.6 16.8 8.9 47 6.3 S 19 28 10 15 1010.9 1009.5 0.0
18/04:00pm 20.4 16.5 9.3 49 6.0 SSW 20 35 11 19 1010.7 1009.3 0.0
18/03:30pm 21.3 18.2 10.2 49 6.1 S 17 32 9 17 1010.5 1009.1 0.0
18/03:00pm 21.4 17.7 9.3 46 6.6 SSW 19 32 10 17 1010.5 1009.1 0.0
18/02:30pm 20.7 17.3 9.3 48 6.2 SSW 17 28 9 15 1010.5 1009.1 0.0
18/02:00pm 20.6 17.3 9.5 49 6.0 SSW 17 32 9 17 1010.6 1009.2 0.0
18/01:30pm 21.6 18.9 10.4 49 6.2 SSW 15 26 8 14 1010.5 1009.1 0.0
18/01:00pm 20.5 16.9 9.7 50 5.9 SSW 19 32 10 17 1010.7 1009.3 0.0
18/12:30pm 19.8 16.9 11.0 57 4.9 S 17 30 9 16 1010.7 1009.3 0.0
18/12:00pm 20.0 17.5 11.0 56 5.0 S 15 32 8 17 1010.6 1009.2 0.0
18/11:30am 19.7 16.8 10.9 57 4.9 S 17 30 9 16 1010.6 1009.2 0.0
18/11:00am 18.9 17.0 11.9 64 3.9 SSW 13 24 7 13 1011.0 1009.6 0.0
18/10:30am 16.4 14.1 11.6 73 2.7 S 15 26 8 14 1010.9 1009.5 0.0
18/10:00am 15.8 13.4 11.4 75 2.4 S 15 22 8 12 1010.0 1008.7 0.0
18/09:30am 15.4 12.1 11.6 78 2.1 S 20 30 11 16 1009.2 1007.8 0.0
18/09:00am 15.2 12.8 12.5 84 1.5 SE 17 30 9 16 1009.5 1008.1 0.0
18/08:30am 15.0 12.7 12.9 87 1.2 S 17 32 9 17 1010.0 1008.7 0.0
18/08:00am 15.1 11.9 13.0 87 1.2 SE 22 33 12 18 1008.6 1007.2 0.0
18/07:30am 15.2 12.4 13.1 87 1.2 SSE 20 33 11 18 1008.7 1007.3 0.0
18/07:00am 15.4 12.8 13.2 87 1.2 SSE 19 33 10 18 1008.5 1007.1 0.0
18/06:30am 15.7 13.1 13.7 88 1.1 SSE 20 32 11 17 1007.8 1006.4 0.0
18/06:00am 15.9 13.0 13.9 88 1.2 SSE 22 43 12 23 1007.7 1006.3 0.0
18/05:30am 16.0 13.5 14.2 89 1.0 SSE 20 35 11 19 1007.0 1005.6 0.0
18/05:00am 16.2 13.4 14.4 89 1.0 SSE 22 33 12 18 1007.0 1005.6 0.0
18/04:30am 16.4 14.3 14.8 90 0.9 S 19 32 10 17 1007.0 1005.6 0.0
18/04:00am 16.3 13.9 14.3 88 1.2 SSE 20 35 11 19 1006.5 1005.1 0.0
18/03:30am 16.6 13.2 14.8 89 1.1 SE 26 41 14 22 1006.5 1005.1 0.0
18/03:00am 16.6 13.8 14.4 87 1.3 SE 22 35 12 19 1006.5 1005.1 0.0
18/02:30am 17.4 14.5 14.1 81 1.9 SE 22 32 12 17 1006.1 1004.7 0.0
18/02:00am 18.4 15.1 11.7 65 3.7 SE 20 30 11 16 1006.7 1005.3 0.0
18/01:30am 19.4 16.3 11.7 61 4.3 SE 19 28 10 15 1007.4 1006.1 0.0
18/01:00am 21.3 17.3 6.8 39 7.5 ESE 17 24 9 13 1007.3 1005.9 0.0
18/12:30am 22.9 18.4 6.2 34 8.7 ENE 19 26 10 14 1007.2 1005.8 0.0
18/12:00am 22.9 18.6 5.3 32 9.0 ENE 17 26 9 14 1007.0 1005.6 0.0
 
Date/Time
CDT
Temp
°C
App
Temp
°C
Dew
Point
°C
Rel
Hum
%
Delta-T
°C
Wind Press
QNH
hPa
Press
MSL
hPa
Rain since
9am
mm
Dir  Spd
km/h
Gust
km/h
Spd
kts
Gust
kts
17/11:30pm 22.7 18.6 6.0 34 8.6 NE 17 26 9 14 1007.6 1006.2 0.0
17/11:00pm 23.3 19.5 5.7 32 9.1 ENE 15 20 8 11 1007.9 1006.5 0.0
17/10:30pm 22.7 19.9 6.9 36 8.3 E 11 13 6 7 1008.4 1007.0 0.0
17/10:00pm 23.3 20.8 6.6 34 8.7 ESE 9 13 5 7 1008.4 1007.0 0.0
17/09:30pm 23.8 21.3 6.6 33 9.0 E 9 11 5 6 1008.2 1006.8 0.0
17/09:00pm 24.7 21.2 5.5 29 10.0 ESE 13 15 7 8 1008.1 1006.7 0.0
17/08:30pm 26.1 22.7 2.1 21 11.8 SE 9 11 5 6 1008.0 1006.6 0.0
17/08:00pm 26.3 23.5 2.9 22 11.7 SE 7 11 4 6 1008.3 1006.9 0.0
17/07:30pm 26.7 23.4 2.6 21 12.0 SW 9 11 5 6 1008.6 1007.2 0.0
17/07:00pm 27.8 25.4 2.1 19 12.8 SSW 4 9 2 5 1008.4 1007.0 0.0
17/06:30pm 29.5 25.2 -1.8 13 14.7 WNW 11 15 6 8 1008.6 1007.2 0.0
17/06:00pm 30.2 25.3 -3.5 11 15.5 NW 13 24 7 13 1008.6 1007.2 0.0
17/05:30pm 30.0 25.0 -1.4 13 14.9 NW 15 24 8 13 1008.4 1007.0 0.0
17/05:00pm 31.6 27.0 -1.2 12 15.8 WNW 13 20 7 11 1008.5 1007.1 0.0
17/04:30pm 32.4 27.3 0.5 13 15.9 WNW 17 28 9 15 1008.7 1007.3 0.0
17/04:00pm 32.2 27.7 2.3 15 15.3 WNW 15 22 8 12 1008.8 1007.4 0.0
17/03:30pm 31.9 27.2 1.1 14 15.5 NNW 15 26 8 14 1009.1 1007.7 0.0
17/03:00pm 31.4 27.5 3.4 17 14.6 NNW 13 22 7 12 1009.5 1008.1 0.0
17/02:30pm 32.5 28.8 4.3 17 15.0 NNW 13 26 7 14 1010.0 1008.7 0.0
17/02:00pm 30.2 26.3 3.3 18 13.8 NNW 13 24 7 13 1010.7 1009.3 0.0
17/01:30pm 29.7 26.5 5.1 21 13.0 NE 11 17 6 9 1011.0 1009.6 0.0
17/01:00pm 28.0 24.7 4.3 22 12.2 ENE 11 17 6 9 1011.4 1010.0 0.0
17/12:30pm 26.6 21.8 2.5 21 12.0 E 17 22 9 12 1012.1 1010.7 0.0
17/12:00pm 25.2 20.5 0.7 20 11.7 E 15 20 8 11 1012.9 1011.6 0.0
17/11:30am 25.3 20.4 2.1 22 11.3 E 17 20 9 11 1013.2 1011.9 0.0
17/11:00am 24.0 19.9 2.2 24 10.6 E 13 20 7 11 1013.4 1012.0 0.0
17/10:30am 23.6 18.5 0.7 22 10.8 ENE 17 24 9 13 1013.2 1011.9 0.0
17/10:00am 21.0 16.7 3.2 31 8.6 ESE 15 19 8 10 1013.6 1012.2 0.0
17/09:30am 19.2 14.9 3.0 34 7.7 ESE 15 20 8 11 1013.6 1012.2 0.0
17/09:00am 20.3 16.8 3.5 33 8.1 E 11 17 6 9 1013.1 1011.8 0.2
17/08:30am 20.0 15.7 1.0 28 8.7 E 13 20 7 11 1013.1 1011.8 0.2
17/08:00am 19.7 15.2 -0.3 26 8.9 E 13 17 7 9 1012.8 1011.5 0.2
17/07:30am 19.7 15.2 -0.3 26 8.9 ENE 13 19 7 10 1012.6 1011.3 0.2
17/07:00am 19.2 14.2 -1.3 25 8.9 ENE 15 19 8 10 1012.4 1011.1 0.2
17/06:30am 19.2 14.0 -2.4 23 9.2 ENE 15 19 8 10 1012.3 1011.0 0.2
17/06:00am 18.8 14.4 -2.7 23 9.1 ENE 11 15 6 8 1012.3 1011.0 0.2
17/05:30am 18.6 14.2 -2.3 24 8.9 ENE 11 15 6 8 1012.2 1010.9 0.2
17/05:00am 18.1 13.4 -1.7 26 8.5 ENE 13 17 7 9 1012.1 1010.7 0.2
17/04:30am 18.2 12.9 -0.6 28 8.2 ENE 17 20 9 11 1012.2 1010.9 0.2
17/04:00am 17.0 12.3 1.0 34 7.2 NE 15 20 8 11 1012.2 1010.9 0.2
17/03:30am 18.2 13.7 -0.1 29 8.1 ENE 13 17 7 9 1012.6 1011.3 0.2
17/03:00am 18.3 14.5 -1.0 27 8.4 ENE 9 13 5 7 1013.0 1011.7 0.2
17/02:30am 19.1 14.4 -1.9 24 9.0 E 13 17 7 9 1013.2 1011.9 0.2
17/02:00am 19.1 14.5 -0.8 26 8.8 ESE 13 17 7 9 1013.6 1012.2 0.2
17/01:30am 17.9 13.7 1.4 33 7.5 E 13 17 7 9 1014.0 1012.6 0.2
17/01:00am 17.6 13.5 2.0 35 7.2 E 13 17 7 9 1014.4 1013.0 0.2
17/12:30am 17.3 13.1 3.9 41 6.4 SE 15 20 8 11 1014.8 1013.5 0.2
17/12:00am 17.2 12.9 5.2 45 5.9 SE 17 20 9 11 1015.0 1013.7 0.2
 
Date/Time
CDT
Temp
°C
App
Temp
°C
Dew
Point
°C
Rel
Hum
%
Delta-T
°C
Wind Press
QNH
hPa
Press
MSL
hPa
Rain since
9am
mm
Dir  Spd
km/h
Gust
km/h
Spd
kts
Gust
kts
16/11:30pm 18.0 13.6 2.7 36 7.2 ESE 15 20 8 11 1015.4 1014.1 0.2
16/11:00pm 17.7 13.9 5.9 46 5.9 ESE 15 19 8 10 1015.6 1014.3 0.2
16/10:30pm 17.8 14.4 7.5 51 5.3 ESE 15 20 8 11 1015.7 1014.4 0.2
16/10:00pm 17.8 15.2 10.7 63 3.9 ESE 15 20 8 11 1015.7 1014.4 0.2
16/09:30pm 18.0 15.7 11.6 66 3.6 SE 15 20 8 11 1015.6 1014.3 0.2
16/09:00pm 18.5 16.6 11.8 65 3.8 ESE 13 17 7 9 1015.4 1014.1 0.2
16/08:30pm 19.5 18.1 12.3 63 4.1 SE 11 17 6 9 1015.3 1014.0 0.2
16/08:00pm 20.9 19.6 12.6 59 4.8 ESE 11 15 6 8 1015.2 1013.9 0.2
16/07:30pm 22.5 21.2 12.4 52 5.8 SE 11 17 6 9 1015.1 1013.8 0.2
16/07:00pm 23.7 22.2 13.0 51 6.3 SSE 13 20 7 11 1015.0 1013.7 0.2
16/06:30pm 25.4 24.1 12.6 45 7.5 SE 11 19 6 10 1014.9 1013.6 0.2
16/06:00pm 27.8 23.9 3.5 21 12.4 SW 13 20 7 11 1014.9 1013.6 0.2
16/05:30pm 27.8 24.4 6.0 25 11.6 WSW 13 20 7 11 1014.9 1013.6 0.2
16/05:00pm 29.0 24.9 4.5 21 12.8 SW 15 26 8 14 1014.9 1013.6 0.2
16/04:30pm 28.5 24.8 4.7 22 12.4 WSW 13 24 7 13 1015.0 1013.7 0.2
16/04:00pm 28.4 24.7 4.6 22 12.4 WSW 13 20 7 11 1015.3 1014.0 0.2
16/03:30pm 28.8 25.2 5.0 22 12.5 SW 13 19 7 10 1015.5 1014.2 0.2
16/03:00pm 28.5 25.0 5.4 23 12.2 W 13 24 7 13 1015.9 1014.6 0.2
16/02:30pm 27.4 23.7 6.2 26 11.3 WSW 15 26 8 14 1016.4 1015.0 0.2
16/02:00pm 27.4 24.3 7.3 28 10.9 WSW 13 28 7 15 1016.8 1015.4 0.2
16/01:30pm 28.1 24.5 8.4 29 10.9 WSW 17 26 9 14 1017.0 1015.7 0.2
16/01:00pm 28.0 25.5 6.7 26 11.5 NW 9 15 5 8 1017.4 1016.1 0.2
16/12:30pm 26.4 24.0 6.9 29 10.4 WSW 9 20 5 11 1017.6 1016.3 0.2
16/12:00pm 25.4 22.0 7.5 32 9.6 W 15 20 8 11 1018.2 1016.9 0.2
16/11:30am 25.2 22.4 6.9 31 9.7 NW 11 19 6 10 1018.5 1017.2 0.0
16/11:00am 24.4 22.8 8.0 35 8.9 W 6 11 3 6 1018.6 1017.3 0.0
16/10:30am 22.5 20.9 8.2 40 7.6 NE 6 9 3 5 1018.8 1017.5 0.0
16/10:00am 21.1 20.2 11.2 53 5.6 ENE 7 11 4 6 1018.8 1017.5 0.0
16/09:30am 18.0 16.8 11.6 66 3.6 ESE 9 15 5 8 1018.8 1017.5 0.0
16/09:00am 16.2 15.0 12.7 80 2.0 E 11 13 6 7 1018.7 1017.4 0.0
16/08:30am 14.8 14.1 13.2 90 0.9 E 9 13 5 7 1018.7 1017.4 0.0
16/08:00am 13.6 12.4 12.8 95 0.4 ESE 11 15 6 8 1018.5 1017.2 0.0
16/07:30am 12.9 11.6 12.6 98 0.2 E 11 15 6 8 1018.3 1017.0 0.0
16/07:00am 12.4 10.2 12.2 99 0.1 E 15 20 8 11 1018.0 1016.7 0.0
16/06:30am 12.4 10.2 12.2 99 0.1 E 15 19 8 10 1017.8 1016.5 0.0
16/06:00am 12.5 10.1 12.5 100 0.0 ESE 17 20 9 11 1017.7 1016.4 0.0
16/05:30am 12.6 10.1 12.4 99 0.1 ESE 17 22 9 12 1017.6 1016.3 0.0
16/05:00am 12.5 10.3 12.2 98 0.2 E 15 20 8 11 1017.6 1016.3 0.0
16/04:30am 12.8 10.4 12.5 98 0.2 E 17 20 9 11 1017.9 1016.6 0.0
16/04:00am 12.9 10.9 12.6 98 0.2 ESE 15 19 8 10 1018.2 1016.9 0.0
16/03:30am 13.1 10.7 12.8 98 0.2 ESE 17 20 9 11 1018.6 1017.3 0.0
16/03:00am 13.1 10.7 12.8 98 0.2 ESE 17 24 9 13 1018.7 1017.4 0.0
16/02:30am 13.1 11.1 12.6 97 0.3 ESE 15 22 8 12 1019.3 1017.9 0.0
16/02:00am 13.2 11.2 12.7 97 0.3 ESE 15 22 8 12 1019.6 1018.3 0.0
16/01:30am 13.3 10.9 12.7 96 0.3 ESE 17 22 9 12 1019.7 1018.4 0.0
16/01:00am 13.4 10.7 12.8 96 0.3 SE 19 26 10 14 1019.8 1018.5 0.0
16/12:30am 13.5 10.8 12.9 96 0.3 SE 19 28 10 15 1020.0 1018.7 0.0
16/12:00am 13.5 11.2 12.9 96 0.3 ESE 17 28 9 15 1020.2 1018.9 0.0
 
Date/Time
CDT
Temp
°C
App
Temp
°C
Dew
Point
°C
Rel
Hum
%
Delta-T
°C
Wind Press
QNH
hPa
Press
MSL
hPa
Rain since
9am
mm
Dir  Spd
km/h
Gust
km/h
Spd
kts
Gust
kts
15/11:30pm 13.7 11.0 12.9 95 0.4 ESE 19 28 10 15 1020.4 1019.1 0.0
15/11:00pm 13.8 11.0 12.7 93 0.6 SE 19 28 10 15 1020.7 1019.4 0.0
15/10:30pm 14.0 11.0 12.7 92 0.7 SE 20 28 11 15 1020.7 1019.4 0.0
15/10:00pm 14.1 12.0 12.5 90 0.9 SE 15 24 8 13 1020.9 1019.6 0.0
15/09:30pm 14.3 11.2 12.3 88 1.1 SE 20 32 11 17 1020.6 1019.3 0.0
15/09:00pm 14.7 11.8 12.2 85 1.4 SE 19 28 10 15 1020.4 1019.1 0.0
15/08:30pm 15.2 12.7 12.2 82 1.7 SE 17 28 9 15 1020.0 1018.7 0.0
15/08:00pm 16.0 13.1 12.2 78 2.1 SSE 19 30 10 16 1019.8 1018.5 0.0
15/07:30pm 17.3 14.4 12.4 73 2.8 SSE 19 32 10 17 1019.5 1018.2 0.0
15/07:00pm 18.9 16.1 12.6 67 3.6 SSE 19 28 10 15 1019.5 1018.2 0.0
15/06:30pm 20.0 17.0 12.5 62 4.3 SE 20 30 11 16 1019.6 1018.3 0.0
15/06:00pm 22.0 19.6 12.5 54 5.5 SSE 17 22 9 12 1019.5 1018.2 0.0
15/05:30pm 23.8 21.6 12.1 48 6.7 SSE 15 26 8 14 1019.5 1018.2 0.0
15/05:00pm 25.8 22.3 7.4 31 9.9 WSW 15 22 8 12 1019.4 1018.0 0.0

Latest Capital City Observations: Canberra | Sydney | Melbourne | Brisbane | Adelaide | Perth | Hobart | Darwin

Other formats

Comma delimited format used in spreadsheet applications
http://www.bom.gov.au/fwo/IDS60901/IDS60901.94683.axf

JavaScript Object Notation format (JSON) in row-major order
http://www.bom.gov.au/fwo/IDS60901/IDS60901.94683.json

Data quality

Most of these data are generated automatically and are frequently updated. Quality checks on data are not normally performed. It is possible for incorrect values to appear. Refer to information at About Latest Weather Observations and please check the disclaimer before using these data.